createdAt,value
2018-11-25T04:48:22.730Z,27.73
2018-11-25T04:50:51.898Z,29.47
2018-11-25T04:53:21.057Z,28.50
2018-11-25T04:55:50.210Z,31.47
2018-11-25T04:58:19.360Z,29.93
2018-11-25T05:00:48.517Z,29.80
2018-11-25T05:03:17.631Z,33.37
2018-11-25T05:05:46.795Z,28.30
2018-11-25T05:08:15.924Z,30.80
2018-11-25T05:10:45.078Z,33.23
2018-11-25T05:13:14.239Z,33.13
2018-11-25T05:15:43.420Z,34.40
2018-11-25T05:18:12.582Z,36.30
2018-11-25T05:20:41.732Z,38.10
2018-11-25T05:23:10.937Z,42.57
2018-11-25T05:25:40.081Z,48.07
2018-11-25T05:28:09.221Z,46.10
2018-11-25T05:30:38.360Z,43.43
2018-11-25T05:33:07.530Z,43.97
2018-11-25T05:35:36.640Z,40.30
2018-11-25T05:38:05.826Z,38.03
2018-11-25T05:40:34.948Z,46.97
2018-11-25T05:43:04.183Z,36.50
2018-11-25T05:45:33.311Z,39.27
2018-11-25T05:48:02.465Z,44.63
2018-11-25T05:50:31.607Z,37.97
2018-11-25T05:53:00.746Z,37.07
2018-11-25T05:55:29.898Z,37.97
2018-11-25T05:57:59.064Z,40.30
2018-11-25T06:00:33.078Z,36.67
2018-11-25T06:03:02.374Z,38.57
2018-11-25T06:05:31.560Z,40.23
2018-11-25T06:08:00.685Z,39.53
2018-11-25T06:10:29.864Z,41.83
2018-11-25T06:12:59.065Z,37.80
2018-11-25T06:15:28.281Z,40.57
2018-11-25T06:17:57.461Z,36.23
2018-11-25T06:20:26.681Z,45.30
2018-11-25T06:22:55.794Z,40.30
2018-11-25T06:25:24.960Z,37.80
2018-11-25T06:27:54.087Z,36.50
2018-11-25T06:30:23.263Z,38.40
2018-11-25T06:32:52.414Z,36.63
2018-11-25T06:35:21.595Z,38.60
2018-11-25T06:37:50.737Z,35.23
2018-11-25T06:40:20.551Z,29.60
2018-11-25T06:42:49.852Z,28.87
2018-11-25T06:45:22.348Z,29.70
2018-11-25T06:47:51.548Z,29.40
2018-11-25T06:50:20.771Z,31.93
2018-11-25T06:52:50.098Z,29.40
2018-11-25T06:55:19.509Z,31.57
2018-11-25T06:57:48.856Z,27.97
2018-11-25T07:00:24.718Z,28.43
2018-11-25T07:02:56.474Z,28.47
2018-11-25T07:05:25.794Z,25.57
2018-11-25T07:07:55.889Z,29.03
2018-11-25T07:10:27.984Z,26.60
2018-11-25T07:12:57.897Z,27.57
2018-11-25T07:15:29.298Z,24.20
2018-11-25T07:18:01.741Z,24.47
2018-11-25T07:20:36.160Z,23.03
2018-11-25T07:23:07.907Z,26.47
2018-11-25T07:25:38.877Z,23.53
2018-11-25T07:28:18.117Z,23.63
2018-11-25T07:30:38.555Z,24.27
2018-11-25T07:33:10.749Z,24.23
2018-11-25T07:35:42.354Z,25.33
2018-11-25T07:38:12.405Z,25.43
2018-11-25T07:40:42.771Z,52.13
2018-11-25T07:43:13.606Z,102.33
2018-11-25T07:45:42.964Z,69.00
2018-11-25T07:48:13.356Z,109.77
2018-11-25T07:50:47.337Z,61.23
2018-11-25T07:53:21.127Z,80.03
2018-11-25T07:55:54.607Z,176.73
2018-11-25T07:58:23.900Z,81.20
2018-11-25T08:00:53.074Z,40.53
2018-11-25T08:03:23.352Z,36.93
2018-11-25T08:05:55.304Z,33.60
2018-11-25T08:08:27.193Z,35.70
2018-11-25T08:10:58.596Z,29.20
2018-11-25T08:13:27.955Z,34.67
2018-11-25T08:15:58.364Z,38.63
2018-11-25T08:18:28.452Z,33.03
2018-11-25T08:20:57.927Z,31.87
2018-11-25T08:23:29.748Z,26.53
2018-11-25T08:25:59.206Z,24.37
2018-11-25T08:28:28.340Z,29.50
2018-11-25T08:31:01.125Z,28.23
2018-11-25T08:33:30.503Z,27.77
2018-11-25T08:36:03.470Z,26.87
2018-11-25T08:38:32.685Z,26.63
2018-11-25T08:41:03.723Z,24.63
2018-11-25T08:43:33.127Z,26.50
2018-11-25T08:46:05.689Z,23.33
2018-11-25T08:48:38.604Z,25.60
2018-11-25T08:51:08.492Z,25.30
2018-11-25T08:53:39.020Z,27.53
2018-11-25T08:56:10.163Z,26.10
2018-11-25T08:58:42.253Z,24.03
2018-11-25T09:01:11.808Z,22.90
2018-11-25T09:03:41.727Z,23.70
2018-11-25T09:06:11.883Z,24.50
2018-11-25T09:08:42.352Z,26.43
2018-11-25T09:11:13.396Z,21.77
2018-11-25T09:13:45.123Z,22.77
2018-11-25T09:16:16.204Z,24.93
2018-11-25T09:18:47.367Z,21.60
2018-11-25T09:21:24.799Z,21.80
2018-11-25T09:23:54.109Z,21.57
2018-11-25T09:26:24.061Z,21.53
2018-11-25T09:28:53.959Z,21.13
2018-11-25T09:31:23.380Z,20.80
2018-11-25T09:33:53.104Z,19.53
2018-11-25T09:36:22.761Z,18.87
2018-11-25T09:38:52.389Z,19.70
2018-11-25T09:41:22.173Z,29.07
2018-11-25T09:43:51.336Z,27.03
2018-11-25T09:46:20.496Z,26.13
2018-11-25T09:48:50.269Z,24.13
2018-11-25T09:51:21.942Z,28.47
2018-11-25T09:53:52.847Z,26.20
2018-11-25T09:56:22.115Z,28.00
2018-11-25T09:58:51.385Z,26.70
2018-11-25T10:01:21.221Z,29.73
2018-11-25T10:03:51.296Z,29.23
2018-11-25T10:06:20.782Z,28.80
2018-11-25T10:08:50.137Z,29.77
2018-11-25T10:11:19.870Z,33.07
2018-11-25T10:13:51.209Z,36.00
2018-11-25T10:16:20.600Z,34.73
2018-11-25T10:18:49.916Z,35.07
2018-11-25T10:21:20.591Z,33.13
2018-11-25T10:23:51.863Z,35.37
2018-11-25T10:26:21.829Z,42.27
2018-11-25T10:28:51.963Z,39.03
2018-11-25T10:31:23.561Z,42.10
2018-11-25T10:33:53.352Z,38.70
2018-11-25T10:36:25.644Z,42.43
2018-11-25T10:38:56.480Z,40.53
2018-11-25T10:41:29.119Z,37.97
2018-11-25T10:43:58.458Z,38.07
2018-11-25T10:46:27.897Z,37.97
2018-11-25T10:49:04.789Z,39.77
2018-11-25T10:51:43.382Z,43.07
2018-11-25T10:54:12.660Z,41.27
2018-11-25T10:56:41.897Z,38.53
2018-11-25T10:59:11.215Z,67.33
2018-11-25T11:01:52.161Z,73.57
2018-11-25T11:04:28.996Z,76.43
2018-11-25T11:07:04.478Z,46.60
2018-11-25T11:09:33.696Z,39.70
2018-11-25T11:12:06.178Z,34.17
2018-11-25T11:14:35.410Z,35.63
2018-11-25T11:17:04.576Z,31.87
2018-11-25T11:19:33.938Z,32.20
2018-11-25T11:22:03.690Z,30.63
2018-11-25T11:24:32.832Z,32.50
2018-11-25T11:27:02.013Z,33.80
2018-11-25T11:29:31.137Z,33.23
2018-11-25T11:32:00.754Z,34.83
2018-11-25T11:34:30.568Z,30.07
2018-11-25T11:37:00.293Z,30.53
2018-11-25T11:39:30.141Z,29.93
2018-11-25T11:42:00.346Z,30.97
2018-11-25T11:44:29.577Z,28.30
2018-11-25T11:46:59.276Z,27.87
2018-11-25T11:49:28.515Z,33.40
2018-11-25T11:51:57.684Z,28.80
2018-11-25T11:54:26.859Z,28.03
2018-11-25T11:56:56.445Z,27.87
2018-11-25T11:59:26.036Z,31.47
2018-11-25T12:01:55.895Z,27.73
2018-11-25T12:04:25.188Z,27.57
2018-11-25T12:06:56.089Z,29.17
2018-11-25T12:09:25.989Z,25.43
2018-11-25T12:11:56.645Z,27.77
2018-11-25T12:14:25.886Z,25.83
2018-11-25T12:16:58.154Z,26.13
2018-11-25T12:19:30.574Z,23.60
2018-11-25T12:22:05.504Z,24.40
2018-11-25T12:24:36.686Z,23.03
2018-11-25T12:27:06.929Z,21.00
2018-11-25T12:29:40.287Z,21.30
2018-11-25T12:32:11.305Z,22.00
2018-11-25T12:34:41.401Z,22.30
2018-11-25T12:37:11.830Z,19.60
2018-11-25T12:39:41.540Z,20.27
2018-11-25T12:42:11.515Z,19.53
2018-11-25T12:44:42.633Z,24.33
2018-11-25T12:47:13.482Z,23.20
2018-11-25T12:49:43.297Z,18.17
2018-11-25T12:52:12.485Z,20.13
2018-11-25T12:54:42.032Z,19.57
2018-11-25T12:57:11.662Z,16.83
2018-11-25T12:59:41.342Z,16.70
2018-11-25T13:02:11.171Z,20.67
2018-11-25T13:04:40.355Z,18.67
2018-11-25T13:07:10.152Z,18.83
2018-11-25T13:09:39.397Z,19.13
2018-11-25T13:12:08.518Z,16.07
2018-11-25T13:14:38.074Z,16.63
2018-11-25T13:17:07.424Z,18.67
2018-11-25T13:19:37.013Z,21.23
2018-11-25T13:22:06.503Z,21.43
2018-11-25T13:24:35.652Z,20.80
2018-11-25T13:27:04.879Z,16.93
2018-11-25T13:29:34.656Z,21.87
2018-11-25T13:32:03.913Z,19.00
2018-11-25T13:34:33.154Z,19.33
2018-11-25T13:37:03.141Z,18.20
2018-11-25T13:39:33.133Z,19.13
2018-11-25T13:42:03.252Z,16.90
2018-11-25T13:44:36.743Z,16.60
2018-11-25T13:47:06.074Z,18.03
2018-11-25T13:49:35.274Z,17.23
2018-11-25T13:52:04.397Z,17.87
2018-11-25T13:54:33.652Z,17.30
2018-11-25T13:57:02.825Z,17.57
2018-11-25T13:59:32.002Z,17.27
2018-11-25T14:02:01.170Z,16.80
2018-11-25T14:04:30.338Z,16.37
2018-11-25T14:06:59.471Z,15.70
2018-11-25T14:09:29.681Z,14.47
2018-11-25T14:11:58.998Z,13.93
2018-11-25T14:14:28.408Z,12.93
2018-11-25T14:16:57.783Z,15.00
2018-11-25T14:19:27.857Z,14.40
2018-11-25T14:21:57.241Z,13.93
2018-11-25T14:24:26.688Z,13.00
2018-11-25T14:26:59.515Z,14.17
2018-11-25T14:29:28.998Z,12.07
2018-11-25T14:31:58.132Z,11.20
2018-11-25T14:34:27.284Z,13.50
2018-11-25T14:36:56.643Z,13.67
2018-11-25T14:39:26.197Z,12.67
2018-11-25T14:41:55.325Z,15.30
2018-11-25T14:44:24.471Z,14.13
2018-11-25T14:46:53.851Z,18.80
2018-11-25T14:49:24.894Z,15.07
2018-11-25T14:51:54.359Z,13.77
2018-11-25T14:54:23.547Z,12.37
2018-11-25T14:56:53.103Z,14.57
2018-11-25T14:59:22.877Z,12.17
2018-11-25T15:01:52.865Z,12.30
2018-11-25T15:04:23.093Z,12.60
2018-11-25T15:06:53.127Z,11.23
2018-11-25T15:09:23.095Z,11.93
2018-11-25T15:11:53.597Z,12.83
2018-11-25T15:14:22.815Z,12.20
2018-11-25T15:16:52.013Z,12.07
2018-11-25T15:19:21.296Z,12.80
2018-11-25T15:21:50.817Z,14.97
2018-11-25T15:24:20.085Z,13.57
2018-11-25T15:26:49.241Z,16.97
2018-11-25T15:29:18.444Z,17.77
2018-11-25T15:31:47.632Z,14.87
2018-11-25T15:34:17.002Z,18.63
2018-11-25T15:36:46.250Z,16.63
2018-11-25T15:39:15.382Z,16.00
2018-11-25T15:41:44.710Z,13.90
2018-11-25T15:44:13.942Z,15.20
2018-11-25T15:46:43.176Z,14.73
2018-11-25T15:49:12.392Z,15.37
2018-11-25T15:51:41.536Z,15.17
2018-11-25T15:54:10.760Z,16.57
2018-11-25T15:56:39.928Z,15.63
2018-11-25T15:59:09.319Z,15.50
2018-11-25T16:01:38.597Z,15.03
2018-11-25T16:04:07.752Z,15.67
2018-11-25T16:06:37.503Z,15.50
2018-11-25T16:09:08.557Z,16.70
2018-11-25T16:11:37.699Z,20.73
2018-11-25T16:14:06.911Z,18.20
2018-11-25T16:16:36.035Z,19.10
2018-11-25T16:19:05.309Z,15.33
2018-11-25T16:21:34.511Z,14.57
2018-11-25T16:24:03.647Z,15.87
2018-11-25T16:26:34.662Z,16.23
2018-11-25T16:29:12.150Z,15.47
2018-11-25T16:31:41.468Z,13.03
2018-11-25T16:34:10.610Z,15.40
2018-11-25T16:36:39.767Z,13.60
2018-11-25T16:39:09.980Z,14.20
2018-11-25T16:41:39.078Z,16.10
2018-11-25T16:44:08.226Z,16.47
2018-11-25T16:46:37.425Z,14.97
2018-11-25T16:49:06.670Z,20.00
2018-11-25T16:51:35.960Z,20.07
2018-11-25T16:54:05.237Z,18.53
2018-11-25T16:56:34.365Z,18.27
2018-11-25T16:59:03.485Z,15.37
2018-11-25T17:01:32.634Z,15.63
2018-11-25T17:04:01.781Z,14.53
2018-11-25T17:06:31.778Z,14.90
2018-11-25T17:09:01.082Z,15.93
2018-11-25T17:11:30.407Z,18.40
2018-11-25T17:13:59.764Z,14.80
2018-11-25T17:16:28.925Z,21.23
2018-11-25T17:18:58.113Z,17.57
2018-11-25T17:21:27.354Z,15.70
2018-11-25T17:23:56.508Z,14.97
2018-11-25T17:26:25.593Z,11.83
2018-11-25T17:28:54.791Z,13.20
2018-11-25T17:31:23.967Z,13.23
2018-11-25T17:33:53.093Z,12.93
2018-11-25T17:36:22.166Z,12.23
2018-11-25T17:38:51.292Z,13.30
2018-11-25T17:41:20.388Z,14.33
2018-11-25T17:43:49.548Z,11.83
2018-11-25T17:46:18.623Z,12.60
2018-11-25T17:48:47.736Z,13.57
2018-11-25T17:51:16.939Z,13.83
2018-11-25T17:53:46.060Z,14.30
2018-11-25T17:56:15.155Z,14.60
2018-11-25T17:58:44.381Z,13.57
2018-11-25T18:01:13.580Z,13.73
2018-11-25T18:03:42.801Z,17.33
2018-11-25T18:06:12.042Z,15.20
2018-11-25T18:08:41.347Z,16.00
2018-11-25T18:11:10.615Z,12.73
2018-11-25T18:13:41.066Z,14.90
2018-11-25T18:16:11.470Z,14.87
2018-11-25T18:18:44.615Z,16.67
2018-11-25T18:21:16.100Z,16.13
2018-11-25T18:23:45.254Z,16.33
2018-11-25T18:26:14.370Z,19.03
2018-11-25T18:28:43.649Z,21.40
2018-11-25T18:31:13.450Z,17.50
2018-11-25T18:33:42.617Z,19.53
2018-11-25T18:36:13.382Z,17.73
2018-11-25T18:38:42.527Z,17.03
2018-11-25T18:41:11.624Z,18.73
2018-11-25T18:43:40.781Z,18.90
2018-11-25T18:46:09.945Z,18.53
2018-11-25T18:48:42.123Z,19.63
2018-11-25T18:51:11.311Z,21.37
2018-11-25T18:53:40.462Z,20.27
2018-11-25T18:56:09.642Z,20.63
2018-11-25T18:58:38.789Z,18.17
2018-11-25T19:01:12.187Z,18.00
2018-11-25T19:03:41.333Z,18.77
2018-11-25T19:06:10.424Z,20.13
2018-11-25T19:08:41.235Z,19.67
2018-11-25T19:11:10.393Z,19.97
2018-11-25T19:13:39.595Z,21.03
2018-11-25T19:16:08.760Z,18.10
2018-11-25T19:18:37.928Z,19.40
2018-11-25T19:21:07.122Z,21.33
2018-11-25T19:23:36.243Z,19.70
2018-11-25T19:26:05.986Z,21.27
2018-11-25T19:28:35.160Z,19.33
2018-11-25T19:31:04.410Z,18.20
2018-11-25T19:33:33.731Z,20.27
2018-11-25T19:36:02.904Z,19.23
2018-11-25T19:38:32.056Z,20.17
2018-11-25T19:41:01.167Z,19.60
2018-11-25T19:43:30.305Z,19.70
2018-11-25T19:45:59.432Z,21.67
2018-11-25T19:48:28.751Z,21.50
2018-11-25T19:50:57.884Z,20.40
2018-11-25T19:53:27.085Z,21.30
2018-11-25T19:55:56.228Z,24.27
2018-11-25T19:58:25.400Z,24.60
2018-11-25T20:00:54.560Z,23.03
2018-11-25T20:03:26.588Z,25.67
2018-11-25T20:05:58.702Z,24.33
2018-11-25T20:08:30.507Z,24.40
2018-11-25T20:11:01.140Z,21.03
2018-11-25T20:13:30.522Z,23.60
2018-11-25T20:16:09.367Z,24.67
2018-11-25T20:18:40.452Z,22.67
2018-11-25T20:21:19.912Z,22.93
2018-11-25T20:23:49.315Z,22.10
2018-11-25T20:26:20.222Z,22.90
2018-11-25T20:28:50.046Z,22.80
2018-11-25T20:31:21.502Z,21.80
2018-11-25T20:33:52.709Z,22.13
2018-11-25T20:36:23.556Z,21.73
2018-11-25T20:38:58.190Z,21.57
2018-11-25T20:41:27.332Z,24.17
2018-11-25T20:43:56.530Z,23.77
2018-11-25T20:46:31.020Z,23.17
2018-11-25T20:49:00.153Z,20.40
2018-11-25T20:51:34.602Z,19.83
2018-11-25T20:54:03.977Z,20.77
2018-11-25T20:56:33.126Z,21.87
2018-11-25T20:59:02.538Z,22.93
2018-11-25T21:01:31.774Z,20.77
2018-11-25T21:04:01.055Z,20.93
2018-11-25T21:06:30.197Z,20.43
2018-11-25T21:08:59.350Z,20.03
2018-11-25T21:11:28.481Z,22.73
2018-11-25T21:13:58.478Z,22.80
2018-11-25T21:16:27.796Z,25.97
2018-11-25T21:18:57.071Z,25.13
2018-11-25T21:21:26.328Z,21.23
2018-11-25T21:23:59.034Z,23.23
2018-11-25T21:26:31.104Z,20.83
2018-11-25T21:29:04.319Z,22.80
2018-11-25T21:31:34.817Z,21.57
2018-11-25T21:34:06.017Z,22.77
2018-11-25T21:36:38.844Z,22.50
2018-11-25T21:39:12.804Z,23.50
2018-11-25T21:41:45.645Z,20.43
2018-11-25T21:44:16.340Z,22.97
2018-11-25T21:46:48.104Z,25.40
2018-11-25T21:49:18.895Z,22.23
2018-11-25T21:51:51.908Z,21.77
2018-11-25T21:54:21.686Z,22.80
2018-11-25T22:00:01.660Z,22.70
2018-11-25T22:02:31.393Z,22.67
2018-11-25T22:05:02.225Z,21.83
2018-11-25T22:07:31.990Z,21.53
2018-11-25T22:10:01.295Z,24.23
2018-11-25T22:12:30.785Z,20.73
2018-11-25T22:15:05.869Z,25.40
2018-11-25T22:17:37.385Z,22.13
2018-11-25T22:20:08.597Z,23.03
2018-11-25T22:22:37.882Z,21.67
2018-11-25T22:25:09.312Z,21.40
2018-11-25T22:27:38.796Z,22.37
2018-11-25T22:30:12.974Z,22.20
2018-11-25T22:32:42.369Z,20.87
2018-11-25T22:35:13.663Z,20.67
2018-11-25T22:37:42.794Z,23.60
2018-11-25T22:40:12.879Z,21.20
2018-11-25T22:42:42.896Z,19.60
2018-11-25T22:45:14.107Z,22.40
2018-11-25T22:47:43.202Z,22.80
2018-11-25T22:50:14.480Z,24.87
2018-11-25T22:52:43.797Z,22.07
2018-11-25T22:55:15.202Z,20.07
2018-11-25T22:57:44.367Z,20.27
2018-11-25T23:00:20.022Z,21.63
2018-11-25T23:02:49.180Z,22.17
2018-11-25T23:05:29.503Z,20.43
2018-11-25T23:07:58.616Z,22.97
2018-11-25T23:10:27.751Z,24.03
2018-11-25T23:12:56.908Z,20.43
2018-11-25T23:15:26.066Z,20.77
2018-11-25T23:17:55.156Z,23.57
2018-11-25T23:20:24.320Z,22.70
2018-11-25T23:22:53.420Z,20.83
2018-11-25T23:25:22.538Z,19.93
2018-11-25T23:27:51.876Z,20.77
2018-11-25T23:30:21.057Z,20.43
2018-11-25T23:32:50.174Z,18.63
2018-11-25T23:35:20.747Z,20.37
2018-11-25T23:37:49.875Z,21.77
2018-11-25T23:40:19.037Z,20.33
2018-11-25T23:42:48.213Z,21.53
2018-11-25T23:45:17.534Z,20.43
2018-11-25T23:47:47.085Z,21.37
2018-11-25T23:50:16.202Z,21.80
2018-11-25T23:52:46.723Z,20.23
2018-11-25T23:55:15.952Z,18.60
2018-11-25T23:57:45.117Z,19.97
